Time;durP1;ratioP1;P1;durP2;ratioP2;P2;SDS_P1;SDS_P2;PMS_P1;PMS_P2;Temp;Humidity;BMP_temperature;BMP_pressure;BME280_temperature;BME280_humidity;BME280_pressure;Samples;Min_cycle;Max_cycle;Signal;HPM_P1;HPM_P2
2021/01/31 00:02:21;;;;;;;2.78;1.23;;;-1.00;90.30;;;;;;4939300;29;20031;-75
2021/01/31 00:04:48;;;;;;;2.97;1.23;;;-1.20;90.30;;;;;;4938939;29;20039;-76
2021/01/31 00:07:16;;;;;;;3.30;1.38;;;-1.10;90.30;;;;;;4939021;29;20507;-76
2021/01/31 00:09:42;;;;;;;3.35;1.38;;;-1.20;90.30;;;;;;4939093;29;20186;-75
2021/01/31 00:12:10;;;;;;;2.45;1.15;;;-1.20;90.30;;;;;;4955798;29;20118;-75
2021/01/31 00:14:36;;;;;;;1.77;1.00;;;-1.20;90.30;;;;;;4954051;28;20040;-75
2021/01/31 00:17:03;;;;;;;2.22;1.23;;;-1.20;90.30;;;;;;4956028;28;20042;-76
2021/01/31 00:19:28;;;;;;;3.20;1.40;;;-1.20;90.30;;;;;;4955989;29;20059;-75
2021/01/31 00:21:58;;;;;;;2.75;1.25;;;-1.20;90.30;;;;;;4956065;29;20142;-75
2021/01/31 00:24:24;;;;;;;2.58;1.10;;;-1.20;90.30;;;;;;4956164;28;20038;-75
2021/01/31 00:26:50;;;;;;;2.03;1.17;;;-1.30;90.30;;;;;;4955895;28;20032;-76
2021/01/31 00:29:15;;;;;;;2.15;1.30;;;-1.30;90.30;;;;;;4938276;29;20134;-75
2021/01/31 00:31:44;;;;;;;3.92;1.60;;;-1.30;90.30;;;;;;4955493;28;20039;-75
2021/01/31 00:34:11;;;;;;;1.88;1.08;;;-1.30;90.30;;;;;;4955435;28;20533;-76
2021/01/31 00:36:36;;;;;;;3.20;1.30;;;-1.30;90.30;;;;;;4955818;28;20032;-76
2021/01/31 00:39:03;;;;;;;2.38;1.25;;;-1.30;90.30;;;;;;4955455;28;20353;-76
2021/01/31 00:41:28;;;;;;;2.38;1.30;;;-1.40;90.30;;;;;;4955145;28;20043;-76
2021/01/31 00:43:54;;;;;;;2.80;1.30;;;-1.30;90.30;;;;;;4938288;29;20035;-75
2021/01/31 00:46:22;;;;;;;2.25;1.05;;;-1.40;90.40;;;;;;4955819;29;20074;-75
2021/01/31 00:48:47;;;;;;;3.78;1.20;;;-1.40;90.40;;;;;;4938053;29;20050;-75
2021/01/31 00:51:13;;;;;;;1.65;1.10;;;-1.40;90.40;;;;;;4955391;28;20039;-76
2021/01/31 00:53:39;;;;;;;2.92;1.20;;;-1.40;90.40;;;;;;4955514;28;20074;-75
2021/01/31 00:56:04;;;;;;;1.88;0.95;;;-1.40;90.40;;;;;;4955669;28;20161;-75
2021/01/31 00:58:30;;;;;;;2.20;1.08;;;-1.40;90.40;;;;;;4955294;28;20086;-75
2021/01/31 01:00:56;;;;;;;2.35;0.90;;;-1.40;90.40;;;;;;4955368;28;20035;-75
2021/01/31 01:03:21;;;;;;;2.03;0.88;;;-1.40;90.40;;;;;;4955214;28;20373;-76
2021/01/31 01:05:47;;;;;;;3.17;1.20;;;-1.60;90.40;;;;;;4955321;28;20035;-75
2021/01/31 01:08:13;;;;;;;2.60;1.33;;;-1.50;90.50;;;;;;4955459;29;20035;-75
2021/01/31 01:10:39;;;;;;;3.13;1.23;;;-1.60;90.40;;;;;;4955344;28;20378;-75
2021/01/31 01:13:05;;;;;;;2.35;1.20;;;-1.60;90.50;;;;;;4955271;28;20066;-75
2021/01/31 01:15:32;;;;;;;2.83;1.25;;;-1.60;90.50;;;;;;4955238;28;20432;-75
2021/01/31 01:17:58;;;;;;;2.17;1.13;;;-1.60;90.50;;;;;;4955299;28;20480;-75
2021/01/31 01:20:25;;;;;;;1.77;1.15;;;-1.60;90.50;;;;;;4955413;29;20094;-75
2021/01/31 01:22:52;;;;;;;2.50;1.20;;;-1.60;90.50;;;;;;4954873;28;20051;-75
2021/01/31 01:25:20;;;;;;;3.45;1.40;;;-1.60;90.50;;;;;;4937673;29;20036;-76
2021/01/31 01:27:46;;;;;;;2.40;1.13;;;-1.70;90.50;;;;;;4937628;29;20118;-75
2021/01/31 01:30:17;;;;;;;3.13;1.35;;;-1.70;90.50;;;;;;4955049;28;20424;-75
2021/01/31 01:32:42;;;;;;;2.60;1.30;;;-1.70;90.50;;;;;;4953387;28;20829;-76
2021/01/31 01:35:09;;;;;;;2.42;1.10;;;-1.70;90.50;;;;;;4955005;28;20480;-75
2021/01/31 01:37:35;;;;;;;2.15;0.93;;;-1.70;90.50;;;;;;4954526;28;20118;-75
2021/01/31 01:40:04;;;;;;;3.20;1.35;;;-1.70;90.50;;;;;;4937520;29;20075;-76
2021/01/31 01:42:30;;;;;;;2.35;1.10;;;-1.70;90.50;;;;;;4937365;29;20035;-75
2021/01/31 01:44:56;;;;;;;2.22;0.98;;;-1.70;90.50;;;;;;4954272;28;20039;-75
2021/01/31 01:47:25;;;;;;;2.50;1.10;;;-1.70;90.50;;;;;;4954467;28;20090;-75
2021/01/31 01:49:56;;;;;;;2.03;1.00;;;-1.70;90.50;;;;;;4954229;28;20465;-75
2021/01/31 01:52:26;;;;;;;2.05;0.82;;;-1.70;90.50;;;;;;4952909;28;20043;-75
2021/01/31 01:54:57;;;;;;;1.67;0.90;;;-1.70;90.50;;;;;;4954315;28;20488;-75
2021/01/31 01:57:27;;;;;;;1.55;0.90;;;-1.70;90.50;;;;;;4937105;28;20071;-75
2021/01/31 01:59:55;;;;;;;3.50;1.25;;;-1.80;90.50;;;;;;4936958;28;20395;-76
2021/01/31 02:02:27;;;;;;;1.70;0.90;;;-1.70;90.60;;;;;;4954575;28;20043;-76
2021/01/31 02:04:54;;;;;;;1.55;1.00;;;-1.70;90.60;;;;;;4953997;28;20067;-75
2021/01/31 02:07:20;;;;;;;1.95;1.23;;;-1.80;90.50;;;;;;4954090;28;20456;-76
2021/01/31 02:09:47;;;;;;;2.20;1.00;;;-1.80;90.50;;;;;;4952612;28;20035;-76
2021/01/31 02:12:15;;;;;;;1.85;1.00;;;-1.80;90.50;;;;;;4954497;28;20039;-76
2021/01/31 02:14:44;;;;;;;1.60;0.90;;;-1.80;90.60;;;;;;4954240;28;20039;-76
2021/01/31 02:17:21;;;;;;;1.83;1.08;;;-1.80;90.60;;;;;;4952379;28;20475;-76
2021/01/31 02:20:17;;;;;;;1.58;1.10;;;-1.80;90.60;;;;;;4938035;28;20074;-76
2021/01/31 02:23:05;;;;;;;1.83;0.90;;;-1.80;90.60;;;;;;4953326;28;20439;-75
2021/01/31 02:25:44;;;;;;;1.10;0.52;;;-1.80;90.50;;;;;;4952592;28;20376;-76
2021/01/31 02:28:33;;;;;;;2.55;1.00;;;-1.80;90.50;;;;;;4952842;28;20031;-76
2021/01/31 02:31:34;;;;;;;2.30;1.00;;;-1.80;90.50;;;;;;4951971;28;20133;-76
2021/01/31 02:34:07;;;;;;;2.40;1.00;;;-1.80;90.50;;;;;;4953323;28;20135;-75
2021/01/31 02:36:51;;;;;;;1.80;0.90;;;-1.80;90.50;;;;;;4951558;28;20111;-75
2021/01/31 02:39:25;;;;;;;1.75;0.90;;;-1.80;90.50;;;;;;4952292;28;20039;-75
2021/01/31 02:42:15;;;;;;;2.55;1.08;;;-1.90;90.80;;;;;;4953960;28;20094;-75
2021/01/31 02:44:44;;;;;;;2.25;1.20;;;-1.90;90.50;;;;;;4952542;28;20089;-76
2021/01/31 02:47:16;;;;;;;2.53;1.30;;;-2.00;90.50;;;;;;4936377;28;20046;-75
2021/01/31 02:49:56;;;;;;;1.20;0.80;;;-1.90;90.60;;;;;;4953712;28;20042;-75
2021/01/31 02:52:29;;;;;;;1.77;0.90;;;-1.90;90.60;;;;;;4952936;28;20118;-75
2021/01/31 02:55:18;;;;;;;1.80;0.90;;;-2.00;90.50;;;;;;4953466;28;20059;-75
2021/01/31 02:57:51;;;;;;;2.22;1.00;;;-1.90;90.50;;;;;;4923112;29;20125;-76
2021/01/31 03:00:24;;;;;;;2.05;1.10;;;-1.90;90.60;;;;;;4920852;29;20398;-75
2021/01/31 03:03:07;;;;;;;1.63;0.82;;;-1.90;90.50;;;;;;4951403;28;20036;-75
2021/01/31 03:05:37;;;;;;;1.48;0.85;;;-1.90;90.60;;;;;;4936159;29;20134;-75
2021/01/31 03:08:15;;;;;;;1.87;0.80;;;-2.00;90.80;;;;;;4953627;28;20498;-75
2021/01/31 03:10:51;;;;;;;1.85;1.05;;;-2.00;90.50;;;;;;4935997;29;20330;-75
2021/01/31 03:13:30;;;;;;;1.80;1.00;;;-2.00;90.60;;;;;;4951917;29;20039;-75
2021/01/31 03:16:08;;;;;;;1.85;1.10;;;-2.00;90.60;;;;;;4952980;28;20419;-75
2021/01/31 03:18:43;;;;;;;2.00;1.00;;;-2.00;90.60;;;;;;4951852;28;20132;-75
2021/01/31 03:21:16;;;;;;;3.03;1.27;;;-2.10;90.60;;;;;;4952945;28;20403;-75
2021/01/31 03:23:47;;;;;;;2.17;1.00;;;-2.00;90.60;;;;;;4936481;29;20114;-75
2021/01/31 03:26:36;;;;;;;2.35;1.20;;;-2.10;90.60;;;;;;4952970;28;20046;-75
2021/01/31 03:29:02;;;;;;;2.05;1.00;;;-2.10;90.60;;;;;;4934262;29;20039;-75
2021/01/31 03:31:32;;;;;;;3.20;1.30;;;-2.10;90.60;;;;;;4952950;28;20044;-75
2021/01/31 03:34:03;;;;;;;1.95;1.20;;;-2.10;90.60;;;;;;4952847;28;20150;-75
2021/01/31 03:36:30;;;;;;;2.47;1.10;;;-2.10;90.70;;;;;;4952885;28;20118;-76
2021/01/31 03:38:57;;;;;;;2.60;1.13;;;-2.10;90.70;;;;;;4952784;28;20042;-75
2021/01/31 03:41:27;;;;;;;2.17;0.98;;;-2.10;90.70;;;;;;4952809;28;20039;-75
2021/01/31 03:43:53;;;;;;;2.05;1.05;;;-2.10;90.70;;;;;;4934170;29;20035;-75
2021/01/31 03:46:41;;;;;;;1.92;0.98;;;-2.20;90.60;;;;;;4935396;29;20046;-75
2021/01/31 03:49:29;;;;;;;2.03;0.90;;;-2.10;90.70;;;;;;4951125;28;20039;-75
2021/01/31 03:51:55;;;;;;;1.27;0.75;;;-2.20;90.70;;;;;;4953084;29;20035;-75
2021/01/31 03:54:21;;;;;;;2.35;0.95;;;-2.10;90.70;;;;;;4953329;28;20046;-75
2021/01/31 03:56:54;;;;;;;2.30;1.00;;;-2.20;90.70;;;;;;4950917;29;20122;-75
2021/01/31 03:59:28;;;;;;;1.90;0.75;;;-2.20;91.00;;;;;;4952813;28;20073;-76
2021/01/31 04:01:55;;;;;;;2.45;0.90;;;-2.20;91.00;;;;;;4932545;28;20035;-75
2021/01/31 04:04:34;;;;;;;1.92;0.93;;;-2.20;90.70;;;;;;4933675;29;20039;-75
2021/01/31 04:07:04;;;;;;;1.88;0.75;;;-2.20;90.70;;;;;;4935629;28;20023;-75
2021/01/31 04:09:34;;;;;;;2.10;0.95;;;-2.20;90.70;;;;;;4952910;28;20094;-75
2021/01/31 04:12:05;;;;;;;2.05;0.98;;;-2.20;90.80;;;;;;4952816;28;20452;-76
2021/01/31 04:14:42;;;;;;;;;;;-2.30;90.70;;;;;;4954592;28;20035;-75
2021/01/31 04:17:08;;;;;;;2.15;0.68;;;-2.30;90.70;;;;;;4955653;28;19906;-74
2021/01/31 04:19:34;;;;;;;2.30;0.80;;;-2.30;90.70;;;;;;4955525;28;20039;-74
2021/01/31 04:21:59;;;;;;;1.23;0.70;;;-2.20;90.70;;;;;;4955524;28;20086;-74
2021/01/31 04:24:25;;;;;;;1.30;0.57;;;-2.30;90.70;;;;;;4956002;28;20035;-74
2021/01/31 04:26:51;;;;;;;1.52;0.88;;;-2.40;90.70;;;;;;4938486;29;20491;-77
2021/01/31 04:29:16;;;;;;;2.08;0.98;;;-2.30;90.70;;;;;;4955597;29;20042;-75
2021/01/31 04:31:42;;;;;;;3.03;1.30;;;-2.30;90.80;;;;;;4938914;29;20042;-75
2021/01/31 04:34:08;;;;;;;2.20;1.10;;;-2.30;91.00;;;;;;4955385;28;20035;-74
2021/01/31 04:36:34;;;;;;;1.92;0.82;;;-2.30;90.80;;;;;;4955350;28;20431;-74
2021/01/31 04:38:59;;;;;;;2.33;1.10;;;-2.30;90.80;;;;;;4955681;28;20027;-74
2021/01/31 04:41:33;;;;;;;1.67;0.77;;;-2.30;90.80;;;;;;4938368;29;20035;-75
2021/01/31 04:44:00;;;;;;;2.65;1.08;;;-2.30;90.80;;;;;;4954357;28;20551;-74
2021/01/31 04:46:39;;;;;;;2.33;1.00;;;-2.40;90.80;;;;;;4938036;29;20051;-75
2021/01/31 04:49:31;;;;;;;1.85;0.82;;;-2.40;90.80;;;;;;4954402;28;20462;-75
2021/01/31 04:52:04;;;;;;;1.42;0.93;;;-2.40;90.80;;;;;;4940779;29;20043;-74
2021/01/31 04:54:55;;;;;;;1.98;1.08;;;-2.30;90.80;;;;;;4955274;28;20043;-74
2021/01/31 04:57:34;;;;;;;2.08;1.10;;;-2.30;90.80;;;;;;4955010;29;20106;-74
2021/01/31 05:00:01;;;;;;;2.80;1.30;;;-2.30;90.80;;;;;;4954966;28;20372;-74
2021/01/31 05:02:36;;;;;;;2.22;0.88;;;-2.40;90.80;;;;;;4937986;29;20061;-74
2021/01/31 05:05:03;;;;;;;2.20;1.02;;;-2.40;90.80;;;;;;4955461;29;20566;-74
2021/01/31 05:07:52;;;;;;;2.33;1.10;;;-2.40;90.80;;;;;;4955246;28;20039;-74
2021/01/31 05:10:18;;;;;;;2.83;1.38;;;-2.40;90.80;;;;;;4936678;29;20444;-74
2021/01/31 05:13:08;;;;;;;2.38;1.17;;;-2.40;90.80;;;;;;4955749;28;20458;-74
2021/01/31 05:15:47;;;;;;;2.95;0.98;;;-2.40;90.80;;;;;;4940320;28;20395;-74
2021/01/31 05:18:16;;;;;;;1.33;0.80;;;-2.40;90.80;;;;;;4936489;29;20453;-74
2021/01/31 05:20:48;;;;;;;1.52;0.85;;;-2.40;90.80;;;;;;4955497;28;20090;-75
2021/01/31 05:23:15;;;;;;;2.55;1.05;;;-2.40;90.80;;;;;;4954036;28;20043;-74
2021/01/31 05:25:41;;;;;;;1.50;0.70;;;-2.30;90.90;;;;;;4954770;28;20031;-74
2021/01/31 05:28:07;;;;;;;2.90;1.17;;;-2.50;90.80;;;;;;4955022;28;20039;-74
2021/01/31 05:30:37;;;;;;;2.35;1.02;;;-2.40;90.90;;;;;;4955008;28;20039;-74
2021/01/31 05:33:21;;;;;;;1.45;0.77;;;-2.40;90.90;;;;;;4953435;28;20090;-74
2021/01/31 05:35:51;;;;;;;1.80;0.95;;;-2.50;90.80;;;;;;4953747;28;20034;-75
2021/01/31 05:38:36;;;;;;;2.20;0.95;;;-2.40;90.80;;;;;;4954660;28;20038;-75
2021/01/31 05:41:31;;;;;;;1.38;0.88;;;-2.50;90.80;;;;;;4953659;28;20031;-75
2021/01/31 05:44:01;;;;;;;1.42;0.88;;;-2.40;90.80;;;;;;4951182;28;20198;-75
2021/01/31 05:46:42;;;;;;;1.45;0.82;;;-2.50;90.80;;;;;;4955083;28;20043;-75
2021/01/31 05:49:29;;;;;;;2.23;0.90;;;-2.60;90.80;;;;;;4954689;28;20125;-75
2021/01/31 05:51:56;;;;;;;1.92;1.00;;;-2.50;90.90;;;;;;4954829;28;20044;-75
2021/01/31 05:54:40;;;;;;;2.35;1.10;;;-2.60;90.90;;;;;;4954911;28;20047;-75
2021/01/31 05:57:30;;;;;;;1.02;0.60;;;-2.50;90.90;;;;;;4954442;28;20041;-75
2021/01/31 05:59:57;;;;;;;2.00;0.90;;;-2.60;90.90;;;;;;4954294;28;20492;-75
2021/01/31 06:02:28;;;;;;;1.63;0.80;;;-2.50;90.90;;;;;;4954149;28;20083;-75
2021/01/31 06:05:10;;;;;;;1.25;0.50;;;-2.50;90.90;;;;;;4954522;28;20040;-75
2021/01/31 06:07:38;;;;;;;1.50;0.70;;;-2.60;90.90;;;;;;4954663;28;20039;-75
2021/01/31 06:10:11;;;;;;;0.93;0.60;;;-2.70;90.90;;;;;;4954591;28;20513;-74
2021/01/31 06:12:37;;;;;;;2.10;0.75;;;-2.70;91.00;;;;;;4954397;28;20053;-75
2021/01/31 06:15:25;;;;;;;0.85;0.80;;;-2.70;91.00;;;;;;4954045;28;20387;-74
2021/01/31 06:17:59;;;;;;;1.83;0.70;;;-2.70;91.00;;;;;;4952735;28;20039;-74
2021/01/31 06:20:30;;;;;;;2.35;0.80;;;-2.70;91.00;;;;;;4954526;28;20379;-74
2021/01/31 06:22:56;;;;;;;1.85;0.70;;;-2.70;91.00;;;;;;4952728;28;20134;-74
2021/01/31 06:25:42;;;;;;;1.23;0.55;;;-2.80;91.10;;;;;;4953897;28;20118;-74
2021/01/31 06:28:21;;;;;;;2.13;0.90;;;-2.80;91.10;;;;;;4952776;28;20123;-74
2021/01/31 06:31:07;;;;;;;1.40;0.70;;;-2.70;91.10;;;;;;4953992;28;20051;-74
2021/01/31 06:33:39;;;;;;;2.10;0.88;;;-2.80;91.10;;;;;;4953732;28;20436;-74
2021/01/31 06:36:44;;;;;;;0.88;0.57;;;-2.80;91.10;;;;;;4952556;28;20039;-75
2021/01/31 06:39:42;;;;;;;1.70;0.95;;;-2.70;91.10;;;;;;4952920;28;20051;-74
2021/01/31 06:42:26;;;;;;;2.88;0.90;;;-2.80;91.10;;;;;;4953637;28;20480;-74
2021/01/31 06:45:06;;;;;;;1.42;0.60;;;-2.70;91.10;;;;;;4953720;28;20040;-74
2021/01/31 06:47:53;;;;;;;1.60;0.55;;;-2.80;91.00;;;;;;4952483;28;20118;-76
2021/01/31 06:50:30;;;;;;;1.40;0.47;;;-2.80;91.00;;;;;;4953578;28;20131;-76
2021/01/31 06:53:07;;;;;;;1.05;0.50;;;-2.80;91.00;;;;;;4953482;28;20043;-76
2021/01/31 06:55:51;;;;;;;1.52;0.60;;;-2.70;91.10;;;;;;4953240;28;20546;-76
2021/01/31 06:58:53;;;;;;;1.80;0.95;;;-2.80;91.10;;;;;;4951216;28;20476;-76
2021/01/31 07:01:27;;;;;;;;;;;-2.90;91.10;;;;;;4953567;28;20046;-76
2021/01/31 07:04:20;;;;;;;1.13;0.50;;;-2.90;91.10;;;;;;4953233;28;21245;-76
2021/01/31 07:07:17;;;;;;;1.85;0.88;;;-2.90;91.00;;;;;;4952007;28;20031;-76
2021/01/31 07:10:11;;;;;;;1.67;0.75;;;-2.90;91.00;;;;;;4952988;28;20476;-76
2021/01/31 07:13:04;;;;;;;2.38;0.70;;;-3.00;91.00;;;;;;4953600;28;20063;-76
2021/01/31 07:15:41;;;;;;;1.52;0.90;;;-2.90;91.00;;;;;;4953048;28;20063;-76
2021/01/31 07:18:12;;;;;;;0.93;0.50;;;-2.90;91.00;;;;;;4953053;28;20480;-76
2021/01/31 07:20:46;;;;;;;1.80;0.73;;;-2.90;91.10;;;;;;4953169;28;20032;-76
2021/01/31 07:23:33;;;;;;;1.80;0.80;;;-2.90;91.10;;;;;;4968069;28;20046;-76
2021/01/31 07:26:09;;;;;;;1.77;0.90;;;-3.00;91.10;;;;;;4972823;28;20038;-76
2021/01/31 07:28:38;;;;;;;2.33;0.85;;;-2.90;91.10;;;;;;4972685;28;20379;-76
2021/01/31 07:31:18;;;;;;;2.83;0.82;;;-2.90;91.10;;;;;;4972706;28;20070;-77
2021/01/31 07:33:59;;;;;;;1.77;0.88;;;-2.90;91.10;;;;;;4972886;28;20376;-77
2021/01/31 07:36:36;;;;;;;2.30;0.98;;;-2.80;91.10;;;;;;4972439;28;20039;-75
2021/01/31 07:39:11;;;;;;;2.40;0.85;;;-2.90;91.10;;;;;;4938226;28;20076;-74
2021/01/31 07:41:42;;;;;;;1.63;0.80;;;-2.90;91.00;;;;;;4972102;28;20042;-75
2021/01/31 07:44:13;;;;;;;1.33;0.80;;;-2.90;91.00;;;;;;4972100;28;20042;-74
2021/01/31 07:46:39;;;;;;;1.42;0.80;;;-2.90;91.00;;;;;;4972240;28;20094;-75
2021/01/31 07:49:06;;;;;;;0.88;0.57;;;-2.80;91.00;;;;;;4972753;28;20065;-74
2021/01/31 07:52:06;;;;;;;2.13;0.90;;;-2.80;91.00;;;;;;4975421;28;20450;-75
2021/01/31 07:54:36;;;;;;;2.67;1.00;;;-2.70;91.00;;;;;;4957792;28;20045;-74
2021/01/31 07:57:37;;;;;;;1.13;0.73;;;-2.80;91.00;;;;;;4975456;28;20039;-74
2021/01/31 08:00:18;;;;;;;2.00;0.60;;;-2.70;91.00;;;;;;4975439;28;20121;-74
2021/01/31 08:02:55;;;;;;;2.13;0.65;;;-2.80;90.90;;;;;;4956666;28;20047;-74
2021/01/31 08:05:58;;;;;;;1.75;0.80;;;-2.70;90.90;;;;;;4975638;28;20046;-74
2021/01/31 08:08:40;;;;;;;2.10;1.00;;;-2.70;90.90;;;;;;4974837;28;20043;-74
2021/01/31 08:11:12;;;;;;;2.28;0.80;;;-2.60;90.90;;;;;;4975060;28;20046;-74
2021/01/31 08:13:40;;;;;;;1.42;0.85;;;-2.60;90.90;;;;;;4957841;28;20066;-75
2021/01/31 08:16:38;;;;;;;1.27;0.60;;;-2.60;90.80;;;;;;4956933;28;20439;-75
2021/01/31 08:19:24;;;;;;;2.50;1.13;;;-2.50;90.90;;;;;;4956412;28;20031;-75
2021/01/31 08:21:59;;;;;;;1.60;0.68;;;-2.40;90.80;;;;;;4975159;28;20050;-75
2021/01/31 08:24:56;;;;;;;1.17;0.75;;;-2.30;90.80;;;;;;4974757;28;20043;-75
2021/01/31 08:27:47;;;;;;;1.85;0.88;;;-2.30;90.80;;;;;;4975222;28;20042;-75
2021/01/31 08:30:21;;;;;;;1.65;0.80;;;-2.20;90.70;;;;;;4974692;28;20078;-74
2021/01/31 08:33:19;;;;;;;1.50;0.60;;;-2.10;90.70;;;;;;4975327;28;20829;-74
2021/01/31 08:36:00;;;;;;;1.45;0.60;;;-2.10;90.70;;;;;;4959871;28;20419;-75
2021/01/31 08:38:35;;;;;;;2.10;0.88;;;-2.10;90.60;;;;;;4975051;28;20104;-75
2021/01/31 08:41:34;;;;;;;1.67;0.85;;;-2.00;90.60;;;;;;4975148;28;20038;-75
2021/01/31 08:44:30;;;;;;;0.80;0.50;;;-2.00;90.60;;;;;;4975399;28;20435;-75
2021/01/31 08:46:59;;;;;;;1.63;0.80;;;-1.90;90.60;;;;;;4959356;28;20035;-75
2021/01/31 08:49:25;;;;;;;1.73;0.85;;;-1.80;90.60;;;;;;4975140;28;20371;-75
2021/01/31 08:52:12;;;;;;;1.75;1.00;;;-1.80;90.50;;;;;;4974879;28;20118;-74
2021/01/31 08:54:38;;;;;;;1.58;0.88;;;-1.80;90.50;;;;;;4974753;28;20510;-75
2021/01/31 08:57:07;;;;;;;3.05;1.35;;;-1.70;90.50;;;;;;4974833;28;20031;-74
2021/01/31 08:59:43;;;;;;;1.05;0.60;;;-1.70;90.50;;;;;;4956038;28;20035;-75
2021/01/31 09:02:25;;;;;;;1.73;0.70;;;-1.70;90.50;;;;;;4974194;28;20475;-74
2021/01/31 09:04:56;;;;;;;1.52;0.88;;;-1.60;90.50;;;;;;4974577;28;20510;-75
2021/01/31 09:07:36;;;;;;;1.98;0.90;;;-1.50;90.50;;;;;;4974188;28;20061;-75
2021/01/31 09:10:24;;;;;;;2.60;0.98;;;-1.50;90.70;;;;;;4955425;28;20504;-75
2021/01/31 09:12:50;;;;;;;1.10;0.70;;;-1.40;90.40;;;;;;4955985;28;20031;-74
2021/01/31 09:15:23;;;;;;;1.55;0.80;;;-1.40;90.30;;;;;;4974702;28;20043;-74
2021/01/31 09:17:49;;;;;;;2.05;0.65;;;-1.30;90.40;;;;;;4974268;28;20031;-74
2021/01/31 09:20:25;;;;;;;1.77;0.90;;;-1.30;90.40;;;;;;4974726;28;20027;-75
2021/01/31 09:22:54;;;;;;;1.55;0.63;;;-1.30;90.40;;;;;;4974605;28;20918;-76
2021/01/31 09:25:22;;;;;;;1.25;0.82;;;-1.30;90.40;;;;;;4974088;28;20039;-76
2021/01/31 09:27:59;;;;;;;1.20;0.60;;;-1.20;90.30;;;;;;4973987;28;20510;-76
2021/01/31 09:30:26;;;;;;;1.75;0.70;;;-1.20;90.30;;;;;;4974620;28;20053;-76
2021/01/31 09:32:57;;;;;;;1.75;0.80;;;-1.10;90.30;;;;;;4974188;28;20050;-76
2021/01/31 09:35:28;;;;;;;1.85;0.95;;;-1.20;90.30;;;;;;4974367;28;20633;-76
2021/01/31 09:38:07;;;;;;;1.15;0.70;;;-1.10;90.30;;;;;;4974583;28;20071;-77
2021/01/31 09:40:35;;;;;;;1.48;0.73;;;-1.10;90.30;;;;;;4974519;28;21195;-76
2021/01/31 09:43:05;;;;;;;1.52;0.57;;;-1.10;90.30;;;;;;4974022;28;20460;-75
2021/01/31 09:45:42;;;;;;;0.95;0.50;;;-1.10;90.40;;;;;;4974494;28;20042;-76
2021/01/31 09:48:11;;;;;;;1.45;0.60;;;-1.00;90.40;;;;;;4953317;28;20392;-76
2021/01/31 09:50:37;;;;;;;2.63;1.00;;;-1.00;90.30;;;;;;4954799;28;20036;-76
2021/01/31 09:53:04;;;;;;;2.10;0.90;;;-0.80;90.30;;;;;;4953523;29;20039;-75
2021/01/31 09:55:49;;;;;;;1.38;0.52;;;-1.00;90.30;;;;;;4954571;28;20035;-76
2021/01/31 09:58:44;;;;;;;1.83;0.68;;;-0.90;90.30;;;;;;4954211;28;20039;-77
2021/01/31 10:01:42;;;;;;;2.30;0.90;;;-0.90;90.30;;;;;;4902822;29;20051;-76
2021/01/31 10:04:16;;;;;;;1.23;0.60;;;-0.90;90.20;;;;;;4863119;29;20033;-76
2021/01/31 10:11:24;;;;;;;1.70;0.80;;;-0.80;90.20;;;;;;4818218;29;20061;-77
2021/01/31 10:13:56;;;;;;;1.02;0.63;;;-0.80;90.20;;;;;;4804739;29;20042;-79
2021/01/31 10:17:19;;;;;;;1.17;0.65;;;-0.60;90.20;;;;;;4805567;29;20065;-76
2021/01/31 10:20:17;;;;;;;2.55;0.95;;;-0.80;90.20;;;;;;4784851;29;20536;-77
2021/01/31 10:22:43;;;;;;;2.60;0.82;;;-0.80;90.20;;;;;;4784577;29;20100;-77
2021/01/31 10:25:11;;;;;;;1.23;0.68;;;-0.70;90.20;;;;;;4777706;29;20438;-77
2021/01/31 10:27:44;;;;;;;1.02;0.60;;;-0.70;90.20;;;;;;4808356;29;20078;-78
2021/01/31 10:30:36;;;;;;;2.05;0.90;;;-0.60;90.20;;;;;;4806753;29;20058;-78
2021/01/31 10:33:03;;;;;;;1.67;0.88;;;-0.60;90.20;;;;;;4809829;29;20038;-78
2021/01/31 10:35:36;;;;;;;2.15;0.80;;;-0.40;90.20;;;;;;4808755;29;20038;-78
2021/01/31 10:38:33;;;;;;;0.77;0.50;;;-0.50;90.10;;;;;;4823211;29;20045;-77
2021/01/31 10:41:01;;;;;;;1.67;0.70;;;-0.40;90.10;;;;;;4839759;29;20456;-78
2021/01/31 10:43:27;;;;;;;1.10;0.57;;;-0.40;90.10;;;;;;4840319;29;20406;-79
2021/01/31 10:45:54;;;;;;;1.25;0.70;;;-0.30;90.10;;;;;;4861502;29;20032;-76
2021/01/31 10:48:19;;;;;;;2.42;0.98;;;-0.20;90.10;;;;;;4954361;28;20031;-78
2021/01/31 10:50:45;;;;;;;2.53;1.02;;;-0.20;90.00;;;;;;4953665;28;20043;-77
2021/01/31 10:53:11;;;;;;;2.22;1.00;;;-0.20;90.00;;;;;;4953641;28;20098;-78
2021/01/31 10:55:38;;;;;;;2.00;0.90;;;-0.20;90.00;;;;;;4920464;29;20436;-78
2021/01/31 10:58:03;;;;;;;2.13;1.10;;;0.00;90.00;;;;;;4936388;29;20498;-79
2021/01/31 11:00:29;;;;;;;2.35;1.23;;;-0.10;90.00;;;;;;4953736;28;20031;-77
2021/01/31 11:02:55;;;;;;;2.10;1.08;;;-0.10;89.90;;;;;;4936366;29;20492;-78
2021/01/31 11:05:22;;;;;;;1.80;0.88;;;0.00;89.90;;;;;;4953407;28;20035;-80
2021/01/31 11:07:48;;;;;;;2.78;1.42;;;0.00;89.80;;;;;;4953659;28;20040;-79
2021/01/31 11:10:15;;;;;;;2.03;0.90;;;0.00;89.70;;;;;;4953465;28;20085;-77
2021/01/31 11:12:40;;;;;;;2.33;1.10;;;0.10;89.80;;;;;;4953469;28;20103;-77
2021/01/31 11:15:08;;;;;;;2.53;1.23;;;0.10;89.80;;;;;;4953246;28;20465;-77
2021/01/31 11:17:34;;;;;;;2.55;1.40;;;0.10;89.70;;;;;;4920394;29;20361;-78
2021/01/31 11:19:59;;;;;;;2.38;1.20;;;0.20;89.60;;;;;;4953430;28;20046;-78
2021/01/31 11:22:25;;;;;;;2.13;1.08;;;0.20;89.60;;;;;;4953595;28;20163;-77
2021/01/31 11:24:51;;;;;;;2.33;1.20;;;0.20;90.10;;;;;;4952605;28;20035;-76
2021/01/31 11:27:17;;;;;;;4.05;1.50;;;0.20;89.60;;;;;;4953153;28;20035;-78
2021/01/31 11:29:42;;;;;;;3.15;1.35;;;0.40;89.60;;;;;;4936258;29;20038;-78
2021/01/31 11:32:08;;;;;;;2.25;1.13;;;0.40;89.50;;;;;;4953019;28;20035;-78
2021/01/31 11:34:34;;;;;;;2.88;1.30;;;0.40;89.40;;;;;;4953077;28;20400;-78
2021/01/31 11:37:00;;;;;;;2.83;1.40;;;0.40;89.30;;;;;;4935802;29;20050;-78
2021/01/31 11:39:26;;;;;;;2.70;1.30;;;0.50;89.20;;;;;;4953620;29;20388;-78
2021/01/31 11:41:52;;;;;;;2.03;1.08;;;0.60;89.30;;;;;;4936114;29;20068;-78
2021/01/31 11:44:18;;;;;;;2.28;1.23;;;0.60;89.20;;;;;;4935942;29;20042;-78
2021/01/31 11:46:44;;;;;;;2.65;1.38;;;0.70;89.10;;;;;;4953242;28;20479;-77
2021/01/31 11:49:10;;;;;;;2.13;1.05;;;0.70;89.10;;;;;;4953073;28;20043;-78
2021/01/31 11:51:37;;;;;;;2.25;1.10;;;0.70;89.00;;;;;;4952863;28;20135;-78
2021/01/31 11:54:03;;;;;;;3.35;1.67;;;0.80;89.10;;;;;;4935985;28;20364;-78
2021/01/31 11:56:29;;;;;;;2.75;1.38;;;0.80;89.00;;;;;;4953027;28;20046;-78
2021/01/31 11:59:09;;;;;;;1.88;1.02;;;0.90;89.00;;;;;;4936295;28;20444;-77
2021/01/31 12:01:52;;;;;;;2.30;1.13;;;0.90;88.80;;;;;;4907261;28;20051;-78
2021/01/31 12:05:05;;;;;;;1.90;1.17;;;0.90;88.80;;;;;;4874481;29;20102;-79
2021/01/31 12:08:01;;;;;;;1.67;1.10;;;1.10;88.80;;;;;;4813695;29;20054;-78
2021/01/31 12:11:01;;;;;;;3.08;1.30;;;1.20;88.60;;;;;;4746918;30;20071;-79
2021/01/31 12:13:59;;;;;;;2.17;0.90;;;1.20;88.40;;;;;;4705910;30;20070;-80
2021/01/31 12:17:01;;;;;;;3.20;1.42;;;1.30;88.30;;;;;;4716382;30;20040;-78
2021/01/31 12:19:26;;;;;;;2.15;1.10;;;1.50;88.20;;;;;;4684067;30;20049;-79
2021/01/31 12:21:52;;;;;;;1.65;0.90;;;1.70;88.00;;;;;;4698816;30;20072;-79
2021/01/31 12:24:18;;;;;;;2.00;1.00;;;1.80;87.70;;;;;;4712900;30;20136;-78
2021/01/31 12:26:44;;;;;;;1.30;0.80;;;1.90;87.70;;;;;;4698395;30;20144;-79
2021/01/31 12:29:11;;;;;;;1.80;1.17;;;2.00;87.60;;;;;;4723560;30;20123;-78
2021/01/31 12:31:37;;;;;;;1.27;0.90;;;2.10;87.50;;;;;;4739149;30;20056;-79
2021/01/31 12:34:03;;;;;;;2.42;1.20;;;2.20;87.40;;;;;;4749142;30;20048;-78
2021/01/31 12:36:29;;;;;;;2.35;1.13;;;2.30;87.30;;;;;;4767137;30;20044;-78
2021/01/31 12:38:55;;;;;;;1.25;0.88;;;2.40;87.20;;;;;;4791612;29;20104;-78
2021/01/31 12:41:21;;;;;;;1.52;1.00;;;2.50;86.90;;;;;;4788854;29;20046;-78
2021/01/31 12:43:46;;;;;;;2.00;1.05;;;2.60;86.90;;;;;;4804226;29;20036;-77
2021/01/31 12:46:12;;;;;;;2.05;1.15;;;2.70;86.70;;;;;;4804782;29;20146;-78
2021/01/31 12:48:38;;;;;;;1.75;1.00;;;2.80;86.70;;;;;;4897501;29;20055;-78
2021/01/31 12:51:04;;;;;;;2.30;1.17;;;2.80;86.70;;;;;;4952546;28;20527;-78
2021/01/31 12:53:29;;;;;;;2.13;1.17;;;2.80;86.50;;;;;;4955765;28;20031;-79
2021/01/31 12:55:55;;;;;;;3.22;1.60;;;2.70;86.40;;;;;;4955494;28;20113;-78
2021/01/31 12:58:21;;;;;;;2.88;1.42;;;2.70;86.50;;;;;;4955469;28;20039;-78
2021/01/31 13:00:47;;;;;;;3.75;1.77;;;2.60;86.60;;;;;;4955872;28;20523;-79
2021/01/31 13:03:13;;;;;;;2.70;1.20;;;2.50;86.70;;;;;;4922652;29;20094;-78
2021/01/31 13:05:38;;;;;;;2.28;1.33;;;2.50;86.90;;;;;;4955039;28;20428;-77
2021/01/31 13:08:14;;;;;;;3.15;1.55;;;2.40;87.10;;;;;;4922085;29;20039;-77
2021/01/31 13:10:40;;;;;;;2.10;1.00;;;2.40;87.40;;;;;;4894761;29;20060;-77
2021/01/31 13:13:06;;;;;;;2.63;1.38;;;2.40;87.40;;;;;;4909287;29;20523;-76
2021/01/31 13:15:32;;;;;;;1.80;1.10;;;2.40;88.00;;;;;;4899142;29;20063;-77
2021/01/31 13:17:59;;;;;;;2.53;1.42;;;2.40;87.40;;;;;;4915452;29;20051;-78
2021/01/31 13:20:33;;;;;;;2.47;1.30;;;2.30;87.40;;;;;;4914869;29;20126;-79
2021/01/31 13:22:59;;;;;;;2.78;1.30;;;2.40;87.40;;;;;;4899094;29;20043;-77
2021/01/31 13:25:25;;;;;;;2.92;1.33;;;2.30;87.50;;;;;;4899646;29;20049;-75
2021/01/31 13:27:50;;;;;;;2.25;1.20;;;2.30;87.50;;;;;;4898848;29;20523;-76
2021/01/31 13:30:20;;;;;;;1.60;1.00;;;2.20;87.40;;;;;;4914662;29;20096;-75